Time;durP1;ratioP1;P1;durP2;ratioP2;P2;SDS_P1;SDS_P2;PMS_P1;PMS_P2;Temp;Humidity;BMP_temperature;BMP_pressure;BME280_temperature;BME280_humidity;BME280_pressure;Samples;Min_cycle;Max_cycle;Signal;HPM_P1;HPM_P2
2022/06/08 00:02:16;;;;;;;3.58;3.28;;;19.90;58.90;;;;;;5054674;28;20280;-69
2022/06/08 00:04:42;;;;;;;3.60;3.30;;;19.90;59.00;;;;;;5054079;28;20178;-68
2022/06/08 00:07:07;;;;;;;3.22;2.92;;;19.90;59.00;;;;;;5055563;28;20175;-71
2022/06/08 00:09:33;;;;;;;4.35;3.35;;;19.80;58.90;;;;;;5054657;28;20265;-71
2022/06/08 00:12:00;;;;;;;6.75;3.05;;;19.90;58.90;;;;;;5055137;28;20237;-70
2022/06/08 00:14:25;;;;;;;3.50;3.22;;;19.90;58.90;;;;;;5055118;28;20215;-70
2022/06/08 00:16:51;;;;;;;6.15;3.15;;;19.80;58.80;;;;;;5054096;28;20224;-69
2022/06/08 00:19:16;;;;;;;3.22;3.03;;;19.80;58.80;;;;;;5055282;28;20265;-71
2022/06/08 00:21:42;;;;;;;3.55;3.25;;;19.80;58.80;;;;;;5055004;28;20262;-70
2022/06/08 00:24:07;;;;;;;3.22;2.92;;;19.70;58.60;;;;;;5054494;28;20262;-71
2022/06/08 00:26:34;;;;;;;3.75;3.28;;;19.80;58.60;;;;;;5055094;28;20258;-70
2022/06/08 00:29:00;;;;;;;3.30;3.08;;;19.80;58.60;;;;;;5054846;28;20650;-71
2022/06/08 00:31:26;;;;;;;3.85;3.55;;;19.80;58.60;;;;;;5054180;28;20213;-72
2022/06/08 00:33:51;;;;;;;3.75;3.38;;;19.80;58.50;;;;;;5054682;28;20238;-70
2022/06/08 00:36:17;;;;;;;3.35;3.00;;;19.70;58.40;;;;;;5054709;28;20646;-70
2022/06/08 00:38:42;;;;;;;3.33;3.03;;;19.80;58.40;;;;;;5053873;28;20174;-69
2022/06/08 00:41:13;;;;;;;4.40;3.40;;;19.80;58.40;;;;;;5054905;28;20615;-70
2022/06/08 00:43:39;;;;;;;3.20;3.00;;;19.80;58.40;;;;;;5054520;28;20183;-71
2022/06/08 00:46:05;;;;;;;5.88;3.20;;;19.70;58.30;;;;;;5053051;28;20167;-71
2022/06/08 00:48:32;;;;;;;3.08;2.88;;;19.70;58.20;;;;;;5053426;28;20187;-72
2022/06/08 00:50:58;;;;;;;3.83;3.53;;;19.70;58.20;;;;;;5052313;28;20685;-72
2022/06/08 00:53:32;;;;;;;4.30;3.90;;;19.70;58.20;;;;;;5054444;28;20345;-72
2022/06/08 00:55:58;;;;;;;4.43;4.07;;;19.70;58.20;;;;;;5053172;28;20189;-71
2022/06/08 00:58:26;;;;;;;4.07;3.78;;;19.70;58.20;;;;;;5052604;28;20261;-69
2022/06/08 01:00:52;;;;;;;4.88;3.63;;;19.70;58.20;;;;;;5053125;28;20178;-69
2022/06/08 01:03:17;;;;;;;4.43;3.70;;;19.70;58.20;;;;;;5053496;28;20571;-69
2022/06/08 01:05:44;;;;;;;3.80;3.33;;;19.70;58.20;;;;;;5053344;28;20535;-69
2022/06/08 01:08:38;;;;;;;4.35;3.92;;;19.70;58.20;;;;;;5054325;28;20233;-70
2022/06/08 01:11:13;;;;;;;4.30;3.90;;;19.70;58.20;;;;;;5052985;28;20217;-71
2022/06/08 01:13:38;;;;;;;4.32;3.92;;;19.70;58.20;;;;;;5053349;28;20233;-71
2022/06/08 01:16:06;;;;;;;3.72;3.42;;;19.70;58.30;;;;;;5054043;28;20630;-70
2022/06/08 01:18:31;;;;;;;4.20;3.80;;;19.70;58.30;;;;;;5052876;28;20183;-70
2022/06/08 01:21:22;;;;;;;3.60;3.38;;;19.70;58.40;;;;;;5052995;28;20851;-71
2022/06/08 01:23:51;;;;;;;3.97;3.58;;;19.70;58.30;;;;;;5053788;28;20317;-70
2022/06/08 01:26:18;;;;;;;3.88;3.47;;;19.70;58.40;;;;;;5052239;28;20175;-71
2022/06/08 01:28:57;;;;;;;5.20;4.10;;;19.70;58.50;;;;;;5053617;28;20179;-70
2022/06/08 01:31:57;;;;;;;4.13;3.83;;;19.60;58.50;;;;;;5052643;28;20182;-71
2022/06/08 01:34:41;;;;;;;4.55;3.45;;;19.60;58.60;;;;;;5052043;28;20265;-71
2022/06/08 01:37:26;;;;;;;3.90;3.60;;;19.60;58.70;;;;;;5052701;28;20201;-70
2022/06/08 01:40:00;;;;;;;4.35;4.03;;;19.70;58.80;;;;;;5052132;28;20196;-69
2022/06/08 01:42:40;;;;;;;4.35;3.95;;;19.60;58.70;;;;;;5052399;28;20171;-70
2022/06/08 01:45:33;;;;;;;3.88;3.58;;;19.60;58.70;;;;;;5052367;28;20244;-71
2022/06/08 01:48:17;;;;;;;4.55;4.15;;;19.70;58.80;;;;;;5051522;28;20171;-71
2022/06/08 01:50:51;;;;;;;4.95;3.63;;;19.60;58.80;;;;;;5053070;28;20626;-71
2022/06/08 01:53:25;;;;;;;4.20;3.90;;;19.60;58.80;;;;;;5053417;28;20218;-72
2022/06/08 01:55:54;;;;;;;4.18;3.85;;;19.60;58.80;;;;;;5051079;28;20687;-70
2022/06/08 01:58:22;;;;;;;5.18;3.85;;;19.60;58.90;;;;;;5052150;28;20182;-69
2022/06/08 02:00:59;;;;;;;4.22;3.83;;;19.60;59.00;;;;;;5052819;28;20170;-69
2022/06/08 02:04:00;;;;;;;4.40;4.00;;;19.60;59.10;;;;;;5051495;28;20682;-70
2022/06/08 02:06:59;;;;;;;5.13;4.20;;;19.60;59.20;;;;;;5030953;28;20225;-70
2022/06/08 02:09:38;;;;;;;4.65;3.97;;;19.60;59.20;;;;;;5050960;28;20543;-72
2022/06/08 02:12:05;;;;;;;5.25;4.85;;;19.60;59.20;;;;;;5053236;28;20266;-70
2022/06/08 02:14:58;;;;;;;4.97;4.50;;;19.50;59.20;;;;;;5052854;28;20297;-69
2022/06/08 02:17:43;;;;;;;4.80;4.40;;;19.60;59.30;;;;;;5051275;28;20183;-70
2022/06/08 02:20:21;;;;;;;4.28;3.88;;;19.60;59.30;;;;;;5051853;28;20187;-71
2022/06/08 02:22:51;;;;;;;4.63;4.22;;;19.60;59.40;;;;;;5049517;28;20198;-70
2022/06/08 02:25:20;;;;;;;4.57;4.18;;;19.60;59.40;;;;;;5050499;28;20213;-70
2022/06/08 02:27:52;;;;;;;5.63;4.63;;;19.60;59.40;;;;;;5049917;28;20171;-72
2022/06/08 02:30:19;;;;;;;4.90;4.50;;;19.60;59.50;;;;;;5049635;28;20690;-71
2022/06/08 02:35:39;;;;;;;4.90;4.40;;;19.50;59.50;;;;;;5050288;28;20232;-71
2022/06/08 02:38:10;;;;;;;4.93;4.40;;;19.60;59.50;;;;;;5049623;28;20170;-69
2022/06/08 02:40:36;;;;;;;4.43;4.13;;;19.50;59.60;;;;;;5050016;28;20163;-70
2022/06/08 02:43:06;;;;;;;5.45;4.95;;;19.50;59.60;;;;;;5051539;28;20171;-70
2022/06/08 02:45:35;;;;;;;4.85;4.50;;;19.50;59.60;;;;;;5049448;28;20187;-70
2022/06/08 02:48:02;;;;;;;5.60;5.10;;;19.50;59.70;;;;;;5049755;28;20754;-70
2022/06/08 02:50:29;;;;;;;5.75;5.03;;;19.50;59.60;;;;;;5050926;28;20235;-72
2022/06/08 02:53:16;;;;;;;5.43;4.88;;;19.40;59.60;;;;;;5050716;28;20183;-71
2022/06/08 02:55:58;;;;;;;6.10;4.57;;;19.50;59.70;;;;;;5051101;28;20214;-71
2022/06/08 02:58:36;;;;;;;4.90;4.50;;;19.50;60.40;;;;;;5049608;28;20262;-70
2022/06/08 03:01:04;;;;;;;5.47;4.40;;;19.50;59.80;;;;;;5049798;28;20174;-68
2022/06/08 03:03:39;;;;;;;5.47;4.97;;;19.50;59.70;;;;;;5049611;28;20230;-69
2022/06/08 03:06:10;;;;;;;4.90;4.50;;;19.50;59.70;;;;;;5049204;28;20186;-69
2022/06/08 03:08:39;;;;;;;4.88;4.35;;;19.50;59.80;;;;;;5049877;28;20256;-70
2022/06/08 03:11:05;;;;;;;5.97;5.05;;;19.50;59.80;;;;;;5050222;28;20179;-70
2022/06/08 03:13:43;;;;;;;5.95;5.30;;;19.50;59.80;;;;;;5049065;28;20792;-70
2022/06/08 03:16:09;;;;;;;4.90;4.50;;;19.50;59.80;;;;;;5050112;28;20650;-71
2022/06/08 03:18:34;;;;;;;5.65;5.10;;;19.50;59.80;;;;;;5050630;28;20191;-69
2022/06/08 03:21:01;;;;;;;5.45;4.90;;;19.50;59.90;;;;;;5050961;28;20665;-71
2022/06/08 03:23:27;;;;;;;5.13;4.72;;;19.50;59.80;;;;;;5051260;28;20662;-70
2022/06/08 03:25:53;;;;;;;6.32;4.93;;;19.50;59.80;;;;;;5050373;28;20349;-71
2022/06/08 03:28:18;;;;;;;6.13;5.35;;;19.50;59.80;;;;;;5054243;28;20534;-70
2022/06/08 03:30:45;;;;;;;5.68;4.82;;;19.40;59.80;;;;;;5054900;28;20504;-70
2022/06/08 03:33:10;;;;;;;5.47;5.00;;;19.50;59.90;;;;;;5054350;28;20174;-70
2022/06/08 03:35:36;;;;;;;6.53;5.93;;;19.50;59.80;;;;;;5054977;28;20167;-70
2022/06/08 03:38:02;;;;;;;5.95;5.28;;;19.40;59.70;;;;;;5054814;28;20191;-70
2022/06/08 03:40:27;;;;;;;5.82;5.10;;;19.40;59.70;;;;;;5054229;28;20233;-70
2022/06/08 03:42:53;;;;;;;6.03;5.53;;;19.50;59.80;;;;;;5054556;28;20621;-69
2022/06/08 03:45:19;;;;;;;7.32;6.20;;;19.40;59.80;;;;;;5054921;28;20182;-71
2022/06/08 03:47:46;;;;;;;6.85;5.20;;;19.50;60.60;;;;;;5054032;28;20171;-71
2022/06/08 03:50:14;;;;;;;6.22;5.63;;;19.40;59.80;;;;;;5053377;28;20186;-72
2022/06/08 03:52:48;;;;;;;6.47;5.88;;;19.40;59.80;;;;;;5054260;28;20182;-72
2022/06/08 03:55:14;;;;;;;5.55;5.05;;;19.40;60.60;;;;;;5053707;28;20224;-71
2022/06/08 03:57:41;;;;;;;5.72;5.20;;;19.50;59.90;;;;;;5052967;28;20171;-70
2022/06/08 04:00:10;;;;;;;6.65;5.15;;;19.50;59.90;;;;;;5053287;28;20269;-69
2022/06/08 04:02:35;;;;;;;6.28;5.78;;;19.50;59.90;;;;;;5053307;28;20254;-69
2022/06/08 04:05:01;;;;;;;6.10;5.60;;;19.50;59.90;;;;;;5054290;28;20602;-69
2022/06/08 04:07:26;;;;;;;5.90;5.38;;;19.50;59.90;;;;;;5054373;28;20199;-70
2022/06/08 04:09:52;;;;;;;6.40;5.63;;;19.40;59.90;;;;;;5053235;28;20236;-71
2022/06/08 04:12:22;;;;;;;6.88;6.18;;;19.50;60.00;;;;;;5054249;28;20175;-69
2022/06/08 04:14:48;;;;;;;6.88;6.28;;;19.50;60.00;;;;;;5053288;28;20225;-69
2022/06/08 04:17:14;;;;;;;7.30;6.25;;;19.50;60.00;;;;;;5054203;28;20186;-70
2022/06/08 04:19:39;;;;;;;6.30;5.75;;;19.50;60.10;;;;;;5053663;28;20183;-70
2022/06/08 04:22:05;;;;;;;6.90;6.20;;;19.50;60.00;;;;;;5053345;28;20221;-71
2022/06/08 04:24:31;;;;;;;7.10;6.50;;;19.50;60.10;;;;;;5053934;28;20510;-70
2022/06/08 04:26:56;;;;;;;7.88;7.05;;;19.50;60.20;;;;;;5053735;28;20175;-69
2022/06/08 04:29:22;;;;;;;6.65;6.05;;;19.50;60.30;;;;;;5053426;28;20172;-70
2022/06/08 04:31:47;;;;;;;8.45;7.35;;;19.40;60.30;;;;;;5053408;28;20260;-70
2022/06/08 04:34:13;;;;;;;8.10;7.15;;;19.40;60.40;;;;;;5053875;28;20230;-71
2022/06/08 04:36:39;;;;;;;8.77;7.97;;;19.40;60.50;;;;;;5052807;28;20171;-68
2022/06/08 04:39:06;;;;;;;9.90;8.90;;;19.40;60.60;;;;;;5052281;28;20179;-69
2022/06/08 04:41:32;;;;;;;10.00;8.95;;;19.50;60.80;;;;;;5053951;28;20258;-69
2022/06/08 04:43:57;;;;;;;10.00;9.00;;;19.40;60.90;;;;;;5052924;28;20220;-70
2022/06/08 04:46:24;;;;;;;10.43;9.48;;;19.40;60.90;;;;;;5053712;28;20555;-71
2022/06/08 04:48:49;;;;;;;11.82;10.63;;;19.40;61.00;;;;;;5053256;28;20192;-71
2022/06/08 04:51:15;;;;;;;11.50;10.38;;;19.50;61.10;;;;;;5052706;28;20214;-72
2022/06/08 04:53:42;;;;;;;10.50;9.60;;;19.50;61.20;;;;;;5053006;28;20618;-71
2022/06/08 04:56:07;;;;;;;10.73;9.60;;;19.50;61.30;;;;;;5053502;28;20206;-70
2022/06/08 04:58:33;;;;;;;10.52;9.32;;;19.50;61.30;;;;;;5052369;28;20642;-69
2022/06/08 05:00:59;;;;;;;11.55;10.38;;;19.50;61.30;;;;;;5053206;28;20175;-69
2022/06/08 05:03:24;;;;;;;11.20;10.10;;;19.60;61.30;;;;;;5053169;28;20744;-69
2022/06/08 05:05:50;;;;;;;10.68;9.65;;;19.60;61.40;;;;;;5052237;28;20179;-69
2022/06/08 05:08:17;;;;;;;9.25;8.45;;;19.60;61.30;;;;;;5053110;28;20167;-71
2022/06/08 05:10:43;;;;;;;10.27;9.18;;;19.50;61.30;;;;;;5052919;28;20269;-69
2022/06/08 05:13:09;;;;;;;9.23;8.43;;;19.50;61.50;;;;;;5052497;28;20258;-69
2022/06/08 05:15:36;;;;;;;10.15;9.25;;;19.50;61.60;;;;;;5052934;28;20179;-70
2022/06/08 05:18:02;;;;;;;9.68;8.50;;;19.50;61.80;;;;;;5052337;28;20196;-71
2022/06/08 05:20:28;;;;;;;10.95;9.93;;;19.50;61.70;;;;;;5052920;28;20262;-72
2022/06/08 05:22:53;;;;;;;10.65;9.65;;;19.50;61.80;;;;;;5052459;28;20645;-71
2022/06/08 05:25:31;;;;;;;10.23;9.23;;;19.60;62.00;;;;;;5052261;28;20259;-71
2022/06/08 05:27:57;;;;;;;9.07;8.20;;;19.60;61.90;;;;;;5052591;28;20186;-72
2022/06/08 05:30:22;;;;;;;8.50;7.72;;;19.60;61.80;;;;;;5052742;28;20178;-72
2022/06/08 05:32:48;;;;;;;9.00;7.60;;;19.60;61.70;;;;;;5051818;28;20601;-70
2022/06/08 05:35:13;;;;;;;8.63;7.80;;;19.60;61.70;;;;;;5052490;28;20215;-71
2022/06/08 05:37:39;;;;;;;8.45;7.60;;;19.60;62.50;;;;;;5052055;28;20506;-71
2022/06/08 05:40:06;;;;;;;8.13;7.43;;;19.60;61.80;;;;;;5050817;28;20204;-72
2022/06/08 05:42:32;;;;;;;7.68;7.07;;;19.60;61.80;;;;;;5052223;28;20179;-69
2022/06/08 05:44:57;;;;;;;8.02;7.22;;;19.60;61.80;;;;;;5052298;28;20202;-72
2022/06/08 05:47:24;;;;;;;7.35;6.72;;;19.60;61.60;;;;;;5051740;28;20167;-74
2022/06/08 05:49:49;;;;;;;6.97;6.45;;;19.60;61.70;;;;;;5051631;28;20211;-74
2022/06/08 05:52:16;;;;;;;7.00;6.43;;;19.60;61.80;;;;;;5052247;28;20171;-73
2022/06/08 05:54:42;;;;;;;6.90;6.30;;;19.60;61.70;;;;;;5051240;28;20219;-70
2022/06/08 05:57:08;;;;;;;6.70;6.10;;;19.60;61.70;;;;;;5051981;28;20182;-71
2022/06/08 05:59:34;;;;;;;7.65;7.00;;;19.60;61.50;;;;;;5052128;28;20181;-71
2022/06/08 06:01:59;;;;;;;7.38;6.65;;;19.60;61.70;;;;;;5051117;28;20171;-71
2022/06/08 06:04:25;;;;;;;6.72;5.70;;;19.60;61.60;;;;;;5051995;28;20642;-71
2022/06/08 06:06:50;;;;;;;5.85;5.28;;;19.60;61.50;;;;;;5051943;28;20305;-71
2022/06/08 06:09:17;;;;;;;6.25;5.72;;;19.60;61.40;;;;;;5051422;28;20171;-73
2022/06/08 06:11:43;;;;;;;5.82;5.32;;;19.70;61.50;;;;;;5051781;28;20327;-72
2022/06/08 06:14:09;;;;;;;5.50;5.10;;;19.70;61.40;;;;;;5052132;28;20313;-72
2022/06/08 06:16:34;;;;;;;5.35;4.95;;;19.70;61.50;;;;;;5051153;28;20190;-72
2022/06/08 06:19:00;;;;;;;5.15;4.75;;;19.70;61.40;;;;;;5051758;28;20207;-73
2022/06/08 06:21:25;;;;;;;5.25;4.85;;;19.70;61.40;;;;;;5051012;28;20171;-72
2022/06/08 06:23:52;;;;;;;4.82;4.35;;;19.70;61.50;;;;;;5051613;28;20171;-72
2022/06/08 06:26:18;;;;;;;5.00;4.47;;;19.70;61.30;;;;;;5051693;28;20240;-72
2022/06/08 06:28:43;;;;;;;4.93;4.55;;;19.70;61.40;;;;;;5050806;28;20642;-73
2022/06/08 06:31:23;;;;;;;4.70;4.40;;;19.70;61.40;;;;;;5051652;28;20175;-73
2022/06/08 06:33:48;;;;;;;4.55;4.15;;;19.70;61.40;;;;;;5050061;28;20199;-73
2022/06/08 06:36:14;;;;;;;4.85;4.45;;;19.70;61.30;;;;;;5050900;28;20171;-72
2022/06/08 06:38:39;;;;;;;5.03;4.28;;;19.70;61.40;;;;;;5051590;28;20210;-71
2022/06/08 06:41:05;;;;;;;4.70;4.30;;;19.70;61.40;;;;;;5051995;28;20265;-72
2022/06/08 06:43:31;;;;;;;4.65;4.25;;;19.70;61.40;;;;;;5050911;28;20249;-73
2022/06/08 06:45:56;;;;;;;4.40;4.00;;;19.70;61.40;;;;;;5051289;28;20585;-73
2022/06/08 06:48:22;;;;;;;4.53;4.18;;;19.70;61.40;;;;;;5051534;28;20182;-74
2022/06/08 06:50:47;;;;;;;4.60;4.20;;;19.80;61.40;;;;;;5050771;28;20530;-73
2022/06/08 06:53:13;;;;;;;4.70;4.30;;;19.70;61.40;;;;;;5051574;28;20232;-74
2022/06/08 06:55:38;;;;;;;4.63;4.22;;;19.80;61.50;;;;;;5051050;28;20182;-73
2022/06/08 06:58:04;;;;;;;3.70;3.40;;;19.80;61.50;;;;;;5050742;28;20178;-72
2022/06/08 07:00:30;;;;;;;3.80;3.50;;;19.80;61.50;;;;;;5051445;28;20186;-71
2022/06/08 07:02:55;;;;;;;4.55;4.15;;;19.70;61.40;;;;;;5053719;28;20253;-72
2022/06/08 07:05:23;;;;;;;4.32;4.03;;;19.80;61.50;;;;;;5054967;28;20695;-71
2022/06/08 07:07:49;;;;;;;3.78;3.58;;;19.80;61.50;;;;;;5055246;28;20179;-71
2022/06/08 07:10:15;;;;;;;4.63;3.47;;;19.80;61.50;;;;;;5055508;28;20645;-73
2022/06/08 07:12:41;;;;;;;3.92;3.72;;;19.80;61.60;;;;;;5054269;28;20186;-70
2022/06/08 07:15:07;;;;;;;3.67;3.38;;;19.80;61.60;;;;;;5055161;28;20210;-71
2022/06/08 07:17:32;;;;;;;3.33;3.13;;;19.80;61.60;;;;;;5055240;28;20174;-70
2022/06/08 07:19:58;;;;;;;7.00;3.90;;;19.80;61.40;;;;;;5054578;28;20337;-69
2022/06/08 07:22:23;;;;;;;4.75;3.22;;;19.80;61.60;;;;;;5055409;28;20612;-69
2022/06/08 07:24:49;;;;;;;5.07;3.65;;;19.80;61.50;;;;;;5054261;28;20705;-69
2022/06/08 07:27:14;;;;;;;3.90;3.60;;;19.80;61.50;;;;;;5054968;28;20262;-69
2022/06/08 07:29:40;;;;;;;4.22;3.50;;;19.80;61.80;;;;;;5054836;28;20181;-71
2022/06/08 07:32:06;;;;;;;3.83;3.53;;;19.90;61.70;;;;;;5054346;28;20660;-70
2022/06/08 07:34:31;;;;;;;3.42;3.13;;;19.80;61.70;;;;;;5055091;28;20219;-70
2022/06/08 07:36:57;;;;;;;11.85;3.50;;;19.80;61.90;;;;;;5054470;28;20618;-69
2022/06/08 07:39:23;;;;;;;3.92;3.55;;;19.90;61.90;;;;;;5054337;28;20244;-71
2022/06/08 07:41:49;;;;;;;4.22;3.83;;;19.90;61.90;;;;;;5054639;28;20175;-69
2022/06/08 07:44:16;;;;;;;5.20;3.60;;;19.90;61.90;;;;;;5054842;28;20183;-70
2022/06/08 07:46:41;;;;;;;5.72;3.50;;;19.90;62.00;;;;;;5053684;28;20179;-70
2022/06/08 07:51:54;;;;;;;4.25;3.60;;;19.90;62.20;;;;;;5054600;28;20259;-70
2022/06/08 07:54:23;;;;;;;6.22;3.40;;;20.00;62.40;;;;;;5054041;28;20264;-72
2022/06/08 07:56:49;;;;;;;4.88;3.83;;;20.00;62.50;;;;;;5054526;28;20206;-69
2022/06/08 07:59:15;;;;;;;4.20;3.80;;;20.00;62.50;;;;;;5054586;28;20244;-70
2022/06/08 08:01:40;;;;;;;3.70;3.42;;;20.00;62.40;;;;;;5053481;28;20171;-70
2022/06/08 08:04:06;;;;;;;3.83;2.97;;;20.10;62.50;;;;;;5054372;28;20227;-70
2022/06/08 08:06:31;;;;;;;4.40;3.60;;;20.10;62.40;;;;;;5054520;28;20546;-70
2022/06/08 08:09:00;;;;;;;4.72;3.17;;;20.10;62.40;;;;;;5053715;28;20617;-70
2022/06/08 08:11:26;;;;;;;3.40;3.10;;;20.20;62.60;;;;;;5054293;28;20175;-69
2022/06/08 08:13:52;;;;;;;6.43;3.13;;;20.20;62.50;;;;;;5053047;28;20684;-69
2022/06/08 08:16:18;;;;;;;6.22;3.58;;;20.30;62.30;;;;;;5054553;28;20260;-68
2022/06/08 08:18:43;;;;;;;4.40;4.00;;;20.30;62.10;;;;;;5054017;28;20183;-69
2022/06/08 08:21:09;;;;;;;4.65;3.28;;;20.40;62.00;;;;;;5053380;28;20175;-70
2022/06/08 08:23:34;;;;;;;3.60;3.00;;;20.40;62.00;;;;;;5053832;28;20652;-71
2022/06/08 08:26:00;;;;;;;3.38;2.63;;;20.40;62.00;;;;;;5054023;28;20179;-71
2022/06/08 08:28:26;;;;;;;3.65;2.97;;;20.40;62.00;;;;;;5053398;28;20178;-71
2022/06/08 08:30:51;;;;;;;3.13;2.78;;;20.40;62.10;;;;;;5053921;28;20183;-71
2022/06/08 08:33:17;;;;;;;4.88;2.83;;;20.40;62.10;;;;;;5053970;28;20174;-71
2022/06/08 08:35:42;;;;;;;3.30;2.97;;;20.40;62.00;;;;;;5053034;28;20271;-71
2022/06/08 08:38:08;;;;;;;3.90;2.70;;;20.40;61.90;;;;;;5053724;28;20198;-73
2022/06/08 08:40:38;;;;;;;5.72;3.22;;;20.40;61.90;;;;;;5053776;28;20253;-71
2022/06/08 08:43:05;;;;;;;5.93;2.70;;;20.50;61.90;;;;;;5052992;28;20635;-70
2022/06/08 08:45:32;;;;;;;6.93;3.20;;;20.50;61.90;;;;;;5053647;28;20205;-72
2022/06/08 08:48:06;;;;;;;10.52;3.05;;;20.50;61.70;;;;;;5052043;28;20517;-70
2022/06/08 08:50:48;;;;;;;5.40;2.70;;;20.60;61.70;;;;;;5051848;28;20221;-69
2022/06/08 08:53:23;;;;;;;5.97;3.08;;;20.60;61.50;;;;;;5051971;28;20240;-69
2022/06/08 08:56:03;;;;;;;5.70;3.20;;;20.70;61.60;;;;;;5053414;28;20209;-70
2022/06/08 08:58:36;;;;;;;3.63;2.72;;;20.70;61.60;;;;;;5053588;28;20179;-68
2022/06/08 09:01:20;;;;;;;7.65;3.05;;;20.70;61.60;;;;;;5051893;28;20643;-69
2022/06/08 09:03:54;;;;;;;5.10;2.65;;;20.70;61.60;;;;;;5050850;28;20230;-70
2022/06/08 09:06:27;;;;;;;8.98;3.00;;;20.70;61.70;;;;;;5051975;28;20594;-68
2022/06/08 09:08:53;;;;;;;5.35;2.47;;;20.70;61.70;;;;;;5053072;28;20179;-71
2022/06/08 09:11:22;;;;;;;8.13;2.60;;;20.70;61.60;;;;;;5052612;28;20175;-71
2022/06/08 09:13:55;;;;;;;5.10;2.35;;;20.80;61.60;;;;;;5052701;28;20211;-69
2022/06/08 09:16:27;;;;;;;3.40;2.60;;;20.80;61.70;;;;;;5053041;28;20175;-69
2022/06/08 09:18:52;;;;;;;3.92;2.70;;;20.80;61.40;;;;;;5052133;28;20572;-68
2022/06/08 09:21:34;;;;;;;3.97;2.60;;;20.80;61.60;;;;;;5053108;28;20635;-69
2022/06/08 09:24:19;;;;;;;4.85;2.45;;;20.80;61.70;;;;;;5052239;28;20209;-69
2022/06/08 09:26:47;;;;;;;4.28;2.45;;;20.80;61.60;;;;;;5052500;28;20201;-68
2022/06/08 09:29:15;;;;;;;5.65;2.38;;;20.80;61.70;;;;;;5051454;28;20175;-70
2022/06/08 09:31:41;;;;;;;6.05;2.53;;;20.90;61.70;;;;;;5051881;28;20176;-72
2022/06/08 09:34:29;;;;;;;3.90;2.17;;;20.80;61.60;;;;;;5052851;28;20558;-71
2022/06/08 09:37:14;;;;;;;9.07;2.88;;;20.90;61.70;;;;;;5052438;28;20633;-70
2022/06/08 09:39:41;;;;;;;4.88;2.47;;;20.80;61.60;;;;;;5050290;28;20262;-68
2022/06/08 09:42:22;;;;;;;3.55;2.33;;;20.80;61.80;;;;;;5051368;28;20266;-68
2022/06/08 09:45:05;;;;;;;4.82;2.38;;;20.80;61.90;;;;;;5051039;28;20181;-68
2022/06/08 09:53:27;;;;;;;4.40;2.20;;;20.80;61.80;;;;;;5051662;28;20580;-73
2022/06/08 09:56:22;;;;;;;3.60;2.20;;;20.80;61.70;;;;;;5051935;28;20186;-72
2022/06/08 09:58:57;;;;;;;3.05;2.15;;;20.80;61.80;;;;;;5050702;28;20649;-70
2022/06/08 10:01:39;;;;;;;2.78;2.10;;;20.70;61.90;;;;;;5051548;28;20174;-73
2022/06/08 10:04:17;;;;;;;5.93;2.35;;;20.70;62.00;;;;;;5052033;28;20237;-72
2022/06/08 10:06:55;;;;;;;2.75;1.85;;;20.70;62.00;;;;;;5049952;28;20550;-68
2022/06/08 10:09:37;;;;;;;3.15;1.90;;;20.80;62.10;;;;;;5052232;28;20225;-73
2022/06/08 10:12:12;;;;;;;3.95;2.13;;;20.70;62.00;;;;;;5050813;28;20251;-76
2022/06/08 10:14:48;;;;;;;4.72;1.80;;;20.80;62.10;;;;;;5049744;28;20206;-73
2022/06/08 10:17:20;;;;;;;3.05;1.90;;;20.70;61.90;;;;;;5050879;28;20170;-73
2022/06/08 10:19:53;;;;;;;3.47;2.20;;;20.70;62.10;;;;;;5050503;28;20186;-76
2022/06/08 10:22:19;;;;;;;5.50;1.83;;;20.70;62.20;;;;;;5050228;28;20246;-73
2022/06/08 10:25:12;;;;;;;2.45;1.75;;;20.70;62.20;;;;;;5051726;28;20193;-75
2022/06/08 10:27:56;;;;;;;6.63;2.03;;;20.60;62.20;;;;;;5051070;28;20601;-75
2022/06/08 10:30:51;;;;;;;4.65;2.28;;;20.60;62.10;;;;;;5050809;28;20208;-74
2022/06/08 10:33:23;;;;;;;2.90;1.95;;;20.60;62.10;;;;;;5051000;28;20175;-74
2022/06/08 10:35:55;;;;;;;3.53;2.00;;;20.60;62.10;;;;;;5049752;28;20591;-75
2022/06/08 10:38:25;;;;;;;4.40;2.30;;;20.60;62.00;;;;;;5050855;28;20180;-74
2022/06/08 10:40:54;;;;;;;4.22;2.03;;;20.60;62.00;;;;;;5051561;28;20260;-74
2022/06/08 10:43:24;;;;;;;5.10;2.40;;;20.70;61.90;;;;;;5051151;28;20179;-74
2022/06/08 10:46:01;;;;;;;2.38;1.98;;;20.70;61.80;;;;;;5050187;28;20237;-75
2022/06/08 10:48:36;;;;;;;3.90;2.10;;;20.70;61.70;;;;;;5050695;28;20244;-74
2022/06/08 10:51:10;;;;;;;4.25;1.70;;;20.80;61.60;;;;;;5051727;28;20175;-74
2022/06/08 10:56:24;;;;;;;4.18;1.90;;;20.80;61.60;;;;;;5051080;28;20186;-74
2022/06/08 10:58:57;;;;;;;4.55;1.80;;;20.70;61.30;;;;;;5051545;28;20541;-73
2022/06/08 11:01:29;;;;;;;2.90;2.00;;;20.90;61.20;;;;;;5051702;28;20271;-74
2022/06/08 11:03:55;;;;;;;3.20;1.90;;;20.90;61.10;;;;;;5049156;28;20737;-74
2022/06/08 11:06:45;;;;;;;2.00;1.80;;;20.90;61.00;;;;;;5051570;28;20268;-74
2022/06/08 11:09:35;;;;;;;3.55;1.80;;;20.80;61.10;;;;;;5051644;28;20254;-74
2022/06/08 11:12:05;;;;;;;2.15;1.85;;;20.80;61.20;;;;;;5050794;28;20186;-74
2022/06/08 11:14:50;;;;;;;1.90;1.73;;;20.70;61.30;;;;;;5051290;28;20223;-73
2022/06/08 11:17:26;;;;;;;4.85;1.80;;;20.80;61.30;;;;;;5050702;28;20179;-73
2022/06/08 11:19:55;;;;;;;3.25;1.95;;;20.80;61.20;;;;;;5049731;28;20201;-74
2022/06/08 11:22:27;;;;;;;2.47;1.70;;;20.80;61.00;;;;;;5050137;28;20182;-73
2022/06/08 11:24:53;;;;;;;1.85;1.52;;;20.80;60.90;;;;;;5049045;28;20609;-74
2022/06/08 11:27:27;;;;;;;2.97;2.17;;;20.80;60.80;;;;;;5050069;28;20646;-74
2022/06/08 11:30:00;;;;;;;2.83;1.60;;;20.90;60.80;;;;;;5050880;28;20175;-74
2022/06/08 11:32:27;;;;;;;2.03;1.60;;;20.90;60.80;;;;;;5050749;28;20175;-75
2022/06/08 11:35:26;;;;;;;3.15;1.50;;;20.90;60.70;;;;;;5049642;28;20289;-74
2022/06/08 11:38:04;;;;;;;2.45;1.38;;;21.00;60.70;;;;;;5050129;28;20634;-75
2022/06/08 11:40:32;;;;;;;1.85;1.60;;;21.00;60.70;;;;;;5051374;28;20175;-74
2022/06/08 11:43:10;;;;;;;2.22;1.45;;;21.00;60.60;;;;;;5051051;28;20626;-74
2022/06/08 11:45:47;;;;;;;2.22;1.63;;;21.00;60.60;;;;;;5049253;28;20179;-73
2022/06/08 11:48:21;;;;;;;3.40;1.63;;;21.00;60.60;;;;;;5052662;28;20209;-74
2022/06/08 11:50:51;;;;;;;2.75;2.00;;;20.90;60.60;;;;;;5054452;28;20663;-73
2022/06/08 11:53:33;;;;;;;6.22;1.98;;;20.90;60.80;;;;;;5054216;28;20473;-74
2022/06/08 11:56:15;;;;;;;2.85;1.75;;;20.90;61.00;;;;;;5054408;28;20205;-74
2022/06/08 11:58:46;;;;;;;3.90;2.00;;;20.80;61.10;;;;;;5053267;28;20175;-73
2022/06/08 12:01:16;;;;;;;2.75;1.85;;;20.80;61.20;;;;;;5054161;28;20175;-74
2022/06/08 12:03:47;;;;;;;5.00;2.10;;;20.80;61.40;;;;;;5052811;28;20662;-72
2022/06/08 12:06:24;;;;;;;9.00;2.13;;;20.70;61.50;;;;;;5054014;28;20265;-73
2022/06/08 12:09:13;;;;;;;2.97;1.80;;;20.80;61.60;;;;;;5053051;28;20625;-73
2022/06/08 12:11:40;;;;;;;4.90;2.10;;;20.70;61.50;;;;;;5053126;28;20633;-73
2022/06/08 12:14:26;;;;;;;3.35;2.20;;;20.70;61.70;;;;;;5052476;28;20601;-72
2022/06/08 12:17:05;;;;;;;4.55;2.25;;;20.70;61.70;;;;;;5053083;28;20245;-73
2022/06/08 12:19:41;;;;;;;6.15;2.25;;;20.70;61.70;;;;;;5054343;28;20187;-72
2022/06/08 12:22:17;;;;;;;3.58;2.10;;;20.70;61.80;;;;;;5053943;28;20264;-73
2022/06/08 12:24:42;;;;;;;2.97;2.10;;;20.60;61.70;;;;;;5054260;28;20185;-72
2022/06/08 12:27:40;;;;;;;4.65;2.20;;;20.70;61.70;;;;;;5052614;28;20479;-73
2022/06/08 12:30:44;;;;;;;4.60;1.88;;;20.70;61.70;;;;;;5034982;28;20186;-74
2022/06/08 12:33:16;;;;;;;4.07;2.30;;;20.60;61.70;;;;;;5043045;28;20194;-75
2022/06/08 12:36:07;;;;;;;3.17;1.60;;;20.60;61.60;;;;;;5053491;28;20214;-73
2022/06/08 12:38:33;;;;;;;3.00;1.60;;;20.60;61.60;;;;;;5054316;28;20205;-73
2022/06/08 12:40:59;;;;;;;5.00;2.35;;;20.60;61.60;;;;;;5053896;28;20179;-74
2022/06/08 12:43:37;;;;;;;4.22;1.75;;;20.60;61.60;;;;;;5053263;28;20186;-74
2022/06/08 12:46:06;;;;;;;3.20;1.42;;;20.60;61.60;;;;;;5051544;28;20209;-73
2022/06/08 12:48:37;;;;;;;3.53;1.80;;;20.60;61.50;;;;;;5051994;28;20179;-72
2022/06/08 12:51:22;;;;;;;3.08;1.58;;;20.60;61.50;;;;;;5053675;28;20201;-72
2022/06/08 12:53:47;;;;;;;4.10;2.00;;;20.70;61.50;;;;;;5053493;28;20198;-72
2022/06/08 12:56:13;;;;;;;4.75;1.85;;;20.60;61.50;;;;;;5053338;28;20175;-72
2022/06/08 12:58:38;;;;;;;6.65;1.55;;;20.60;61.40;;;;;;5052033;28;20167;-73
2022/06/08 13:01:04;;;;;;;4.70;1.80;;;20.70;61.50;;;;;;5053019;28;20183;-73
2022/06/08 13:03:29;;;;;;;3.53;1.55;;;20.60;61.40;;;;;;5052687;28;20218;-74
2022/06/08 13:05:55;;;;;;;4.20;1.80;;;20.70;61.40;;;;;;5053545;28;20713;-74
2022/06/08 13:08:24;;;;;;;2.67;1.50;;;20.70;61.40;;;;;;5053605;28;20514;-73
2022/06/08 13:10:50;;;;;;;3.08;1.63;;;20.70;61.40;;;;;;5052488;28;20205;-72
2022/06/08 13:13:19;;;;;;;2.67;1.50;;;20.70;61.40;;;;;;5052294;28;20175;-71
2022/06/08 13:15:45;;;;;;;2.53;1.30;;;20.60;61.40;;;;;;5051769;28;20211;-70
2022/06/08 13:18:23;;;;;;;4.75;1.90;;;20.70;61.40;;;;;;5052729;28;20224;-70